sensor_id;sensor_type;location;lat;lon;timestamp;P1;durP1;ratioP1;P2;durP2;ratioP2
8060;SDS011;4073;42.626;25.386;2023-05-15T00:01:32;11.83;;;10.53;;
8060;SDS011;4073;42.626;25.386;2023-05-15T00:03:57;11.33;;;10.33;;
8060;SDS011;4073;42.626;25.386;2023-05-15T00:06:23;12.07;;;10.90;;
8060;SDS011;4073;42.626;25.386;2023-05-15T00:08:48;11.97;;;10.87;;
8060;SDS011;4073;42.626;25.386;2023-05-15T00:11:14;12.60;;;11.30;;
8060;SDS011;4073;42.626;25.386;2023-05-15T00:13:39;13.53;;;12.13;;
8060;SDS011;4073;42.626;25.386;2023-05-15T00:16:06;13.13;;;11.73;;
8060;SDS011;4073;42.626;25.386;2023-05-15T00:18:32;12.00;;;10.80;;
8060;SDS011;4073;42.626;25.386;2023-05-15T00:20:58;11.30;;;10.20;;
8060;SDS011;4073;42.626;25.386;2023-05-15T00:23:23;11.67;;;10.60;;
8060;SDS011;4073;42.626;25.386;2023-05-15T00:25:49;11.77;;;10.57;;
8060;SDS011;4073;42.626;25.386;2023-05-15T00:28:14;12.63;;;11.33;;
8060;SDS011;4073;42.626;25.386;2023-05-15T00:30:40;11.70;;;10.60;;
8060;SDS011;4073;42.626;25.386;2023-05-15T00:33:05;12.53;;;11.33;;
8060;SDS011;4073;42.626;25.386;2023-05-15T00:35:31;12.17;;;11.07;;
8060;SDS011;4073;42.626;25.386;2023-05-15T00:37:57;12.13;;;10.80;;
8060;SDS011;4073;42.626;25.386;2023-05-15T00:40:23;12.83;;;11.53;;
8060;SDS011;4073;42.626;25.386;2023-05-15T00:42:50;12.13;;;11.03;;
8060;SDS011;4073;42.626;25.386;2023-05-15T00:45:17;12.43;;;10.17;;
8060;SDS011;4073;42.626;25.386;2023-05-15T00:47:44;10.73;;;9.83;;
8060;SDS011;4073;42.626;25.386;2023-05-15T00:50:10;12.03;;;9.90;;
8060;SDS011;4073;42.626;25.386;2023-05-15T00:52:35;11.83;;;10.63;;
8060;SDS011;4073;42.626;25.386;2023-05-15T00:55:01;12.13;;;10.93;;
8060;SDS011;4073;42.626;25.386;2023-05-15T00:57:27;11.73;;;10.63;;
8060;SDS011;4073;42.626;25.386;2023-05-15T00:59:56;12.47;;;10.93;;
8060;SDS011;4073;42.626;25.386;2023-05-15T01:02:21;11.60;;;10.50;;
8060;SDS011;4073;42.626;25.386;2023-05-15T01:04:47;11.67;;;10.57;;
8060;SDS011;4073;42.626;25.386;2023-05-15T01:07:13;12.97;;;11.40;;
8060;SDS011;4073;42.626;25.386;2023-05-15T01:09:42;11.73;;;10.53;;
8060;SDS011;4073;42.626;25.386;2023-05-15T01:12:08;11.97;;;10.70;;
8060;SDS011;4073;42.626;25.386;2023-05-15T01:14:35;13.13;;;11.83;;
8060;SDS011;4073;42.626;25.386;2023-05-15T01:17:01;13.23;;;11.80;;
8060;SDS011;4073;42.626;25.386;2023-05-15T01:19:27;14.13;;;11.80;;
8060;SDS011;4073;42.626;25.386;2023-05-15T01:30:04;13.40;;;11.60;;
8060;SDS011;4073;42.626;25.386;2023-05-15T01:32:42;12.03;;;10.93;;
8060;SDS011;4073;42.626;25.386;2023-05-15T01:35:32;12.60;;;11.40;;
8060;SDS011;4073;42.626;25.386;2023-05-15T01:40:43;13.60;;;11.97;;
8060;SDS011;4073;42.626;25.386;2023-05-15T01:43:10;12.00;;;10.90;;
8060;SDS011;4073;42.626;25.386;2023-05-15T01:45:40;12.50;;;11.17;;
8060;SDS011;4073;42.626;25.386;2023-05-15T01:48:07;12.87;;;11.57;;
8060;SDS011;4073;42.626;25.386;2023-05-15T01:50:33;12.63;;;11.47;;
8060;SDS011;4073;42.626;25.386;2023-05-15T01:53:02;13.13;;;10.80;;
8060;SDS011;4073;42.626;25.386;2023-05-15T01:55:31;11.30;;;10.23;;
8060;SDS011;4073;42.626;25.386;2023-05-15T01:57:59;12.03;;;10.93;;
8060;SDS011;4073;42.626;25.386;2023-05-15T02:00:25;10.97;;;9.97;;
8060;SDS011;4073;42.626;25.386;2023-05-15T02:02:51;10.83;;;9.73;;
8060;SDS011;4073;42.626;25.386;2023-05-15T02:05:17;12.00;;;10.93;;
8060;SDS011;4073;42.626;25.386;2023-05-15T02:07:43;12.37;;;11.27;;
8060;SDS011;4073;42.626;25.386;2023-05-15T02:10:11;11.17;;;10.03;;
8060;SDS011;4073;42.626;25.386;2023-05-15T02:12:38;12.20;;;10.20;;
8060;SDS011;4073;42.626;25.386;2023-05-15T02:15:05;11.47;;;9.70;;
8060;SDS011;4073;42.626;25.386;2023-05-15T02:17:33;12.13;;;10.93;;
8060;SDS011;4073;42.626;25.386;2023-05-15T02:19:58;12.30;;;10.90;;
8060;SDS011;4073;42.626;25.386;2023-05-15T02:22:24;12.10;;;10.80;;
8060;SDS011;4073;42.626;25.386;2023-05-15T02:24:49;12.37;;;11.27;;
8060;SDS011;4073;42.626;25.386;2023-05-15T02:32:46;11.47;;;10.27;;
8060;SDS011;4073;42.626;25.386;2023-05-15T02:35:21;11.63;;;10.43;;
8060;SDS011;4073;42.626;25.386;2023-05-15T02:37:55;11.47;;;10.10;;
8060;SDS011;4073;42.626;25.386;2023-05-15T02:40:26;11.23;;;10.13;;
8060;SDS011;4073;42.626;25.386;2023-05-15T02:42:53;11.27;;;10.10;;
8060;SDS011;4073;42.626;25.386;2023-05-15T02:45:19;10.97;;;9.97;;
8060;SDS011;4073;42.626;25.386;2023-05-15T02:47:46;11.97;;;10.77;;
8060;SDS011;4073;42.626;25.386;2023-05-15T02:50:14;12.60;;;11.00;;
8060;SDS011;4073;42.626;25.386;2023-05-15T02:52:40;11.53;;;10.53;;
8060;SDS011;4073;42.626;25.386;2023-05-15T02:55:05;11.50;;;10.40;;
8060;SDS011;4073;42.626;25.386;2023-05-15T02:57:31;11.93;;;10.73;;
8060;SDS011;4073;42.626;25.386;2023-05-15T02:59:58;12.63;;;11.30;;
8060;SDS011;4073;42.626;25.386;2023-05-15T03:02:24;11.87;;;10.70;;
8060;SDS011;4073;42.626;25.386;2023-05-15T03:04:49;12.43;;;11.20;;
8060;SDS011;4073;42.626;25.386;2023-05-15T03:07:15;11.57;;;10.57;;
8060;SDS011;4073;42.626;25.386;2023-05-15T03:09:40;13.47;;;11.33;;
8060;SDS011;4073;42.626;25.386;2023-05-15T03:12:06;12.23;;;11.00;;
8060;SDS011;4073;42.626;25.386;2023-05-15T03:14:32;13.43;;;12.13;;
8060;SDS011;4073;42.626;25.386;2023-05-15T03:16:59;15.80;;;12.23;;
8060;SDS011;4073;42.626;25.386;2023-05-15T03:19:24;13.97;;;12.57;;
8060;SDS011;4073;42.626;25.386;2023-05-15T03:21:50;13.77;;;12.40;;
8060;SDS011;4073;42.626;25.386;2023-05-15T03:24:15;12.70;;;11.40;;
8060;SDS011;4073;42.626;25.386;2023-05-15T03:26:40;12.67;;;11.47;;
8060;SDS011;4073;42.626;25.386;2023-05-15T03:29:06;13.03;;;11.77;;
8060;SDS011;4073;42.626;25.386;2023-05-15T03:31:32;13.33;;;12.07;;
8060;SDS011;4073;42.626;25.386;2023-05-15T03:33:58;14.40;;;11.73;;
8060;SDS011;4073;42.626;25.386;2023-05-15T03:36:23;13.07;;;11.63;;
8060;SDS011;4073;42.626;25.386;2023-05-15T03:38:49;13.77;;;12.57;;
8060;SDS011;4073;42.626;25.386;2023-05-15T03:41:14;16.00;;;14.43;;
8060;SDS011;4073;42.626;25.386;2023-05-15T03:43:40;14.33;;;12.13;;
8060;SDS011;4073;42.626;25.386;2023-05-15T03:46:05;12.70;;;11.50;;
8060;SDS011;4073;42.626;25.386;2023-05-15T03:48:30;13.90;;;10.83;;
8060;SDS011;4073;42.626;25.386;2023-05-15T03:50:56;13.67;;;10.97;;
8060;SDS011;4073;42.626;25.386;2023-05-15T03:53:21;11.90;;;10.80;;
8060;SDS011;4073;42.626;25.386;2023-05-15T03:55:47;12.33;;;11.13;;
8060;SDS011;4073;42.626;25.386;2023-05-15T03:58:12;11.63;;;10.43;;
8060;SDS011;4073;42.626;25.386;2023-05-15T04:00:38;11.90;;;10.90;;
8060;SDS011;4073;42.626;25.386;2023-05-15T04:03:03;12.17;;;11.07;;
8060;SDS011;4073;42.626;25.386;2023-05-15T04:05:29;10.53;;;9.47;;
8060;SDS011;4073;42.626;25.386;2023-05-15T04:07:54;12.57;;;10.50;;
8060;SDS011;4073;42.626;25.386;2023-05-15T04:10:20;14.70;;;10.33;;
8060;SDS011;4073;42.626;25.386;2023-05-15T04:12:45;10.20;;;9.30;;
8060;SDS011;4073;42.626;25.386;2023-05-15T04:15:16;10.50;;;9.40;;
8060;SDS011;4073;42.626;25.386;2023-05-15T04:17:45;9.50;;;8.70;;
8060;SDS011;4073;42.626;25.386;2023-05-15T04:20:14;10.83;;;9.53;;
8060;SDS011;4073;42.626;25.386;2023-05-15T04:22:42;11.57;;;10.43;;
8060;SDS011;4073;42.626;25.386;2023-05-15T04:25:08;12.37;;;11.03;;
8060;SDS011;4073;42.626;25.386;2023-05-15T04:27:35;13.53;;;11.60;;
8060;SDS011;4073;42.626;25.386;2023-05-15T04:30:02;13.27;;;10.47;;
8060;SDS011;4073;42.626;25.386;2023-05-15T04:32:29;14.90;;;12.47;;
8060;SDS011;4073;42.626;25.386;2023-05-15T04:34:55;13.90;;;12.60;;
8060;SDS011;4073;42.626;25.386;2023-05-15T04:37:20;14.70;;;13.23;;
8060;SDS011;4073;42.626;25.386;2023-05-15T04:39:46;19.33;;;15.53;;
8060;SDS011;4073;42.626;25.386;2023-05-15T04:42:12;13.33;;;12.07;;
8060;SDS011;4073;42.626;25.386;2023-05-15T04:44:37;14.20;;;12.70;;
8060;SDS011;4073;42.626;25.386;2023-05-15T04:47:03;12.80;;;11.60;;
8060;SDS011;4073;42.626;25.386;2023-05-15T04:49:29;14.50;;;13.07;;
8060;SDS011;4073;42.626;25.386;2023-05-15T04:51:54;13.87;;;12.37;;
8060;SDS011;4073;42.626;25.386;2023-05-15T04:54:19;15.67;;;11.90;;
8060;SDS011;4073;42.626;25.386;2023-05-15T04:56:45;12.57;;;11.37;;
8060;SDS011;4073;42.626;25.386;2023-05-15T04:59:10;15.77;;;12.83;;
8060;SDS011;4073;42.626;25.386;2023-05-15T05:01:37;15.83;;;12.70;;
8060;SDS011;4073;42.626;25.386;2023-05-15T05:04:03;14.30;;;12.80;;
8060;SDS011;4073;42.626;25.386;2023-05-15T05:06:28;13.87;;;12.47;;
8060;SDS011;4073;42.626;25.386;2023-05-15T05:08:53;16.20;;;13.87;;
8060;SDS011;4073;42.626;25.386;2023-05-15T05:11:19;14.97;;;13.47;;
8060;SDS011;4073;42.626;25.386;2023-05-15T05:13:45;12.10;;;10.90;;
8060;SDS011;4073;42.626;25.386;2023-05-15T05:16:11;14.03;;;11.20;;
8060;SDS011;4073;42.626;25.386;2023-05-15T05:18:36;12.60;;;11.33;;
8060;SDS011;4073;42.626;25.386;2023-05-15T05:21:02;12.43;;;11.23;;
8060;SDS011;4073;42.626;25.386;2023-05-15T05:23:30;12.80;;;11.20;;
8060;SDS011;4073;42.626;25.386;2023-05-15T05:25:56;13.90;;;10.97;;
8060;SDS011;4073;42.626;25.386;2023-05-15T05:28:21;11.93;;;9.87;;
8060;SDS011;4073;42.626;25.386;2023-05-15T05:30:47;18.57;;;9.93;;
8060;SDS011;4073;42.626;25.386;2023-05-15T05:33:13;12.17;;;10.57;;
8060;SDS011;4073;42.626;25.386;2023-05-15T05:35:39;14.97;;;11.70;;
8060;SDS011;4073;42.626;25.386;2023-05-15T05:38:05;11.57;;;9.80;;
8060;SDS011;4073;42.626;25.386;2023-05-15T05:40:30;10.60;;;9.60;;
8060;SDS011;4073;42.626;25.386;2023-05-15T05:42:59;10.20;;;9.20;;
8060;SDS011;4073;42.626;25.386;2023-05-15T05:45:25;10.97;;;9.87;;
8060;SDS011;4073;42.626;25.386;2023-05-15T05:47:51;11.13;;;10.03;;
8060;SDS011;4073;42.626;25.386;2023-05-15T05:50:17;11.27;;;9.40;;
8060;SDS011;4073;42.626;25.386;2023-05-15T05:52:42;11.63;;;10.53;;
8060;SDS011;4073;42.626;25.386;2023-05-15T05:55:08;11.20;;;10.10;;
8060;SDS011;4073;42.626;25.386;2023-05-15T05:57:34;10.93;;;10.00;;
8060;SDS011;4073;42.626;25.386;2023-05-15T05:59:59;11.60;;;10.50;;
8060;SDS011;4073;42.626;25.386;2023-05-15T06:02:25;15.57;;;10.40;;
8060;SDS011;4073;42.626;25.386;2023-05-15T06:04:51;15.20;;;10.83;;
8060;SDS011;4073;42.626;25.386;2023-05-15T06:07:16;11.37;;;10.23;;
8060;SDS011;4073;42.626;25.386;2023-05-15T06:09:42;10.77;;;9.83;;
8060;SDS011;4073;42.626;25.386;2023-05-15T06:12:07;11.23;;;10.13;;
8060;SDS011;4073;42.626;25.386;2023-05-15T06:14:33;10.20;;;9.10;;
8060;SDS011;4073;42.626;25.386;2023-05-15T06:16:59;11.70;;;9.83;;
8060;SDS011;4073;42.626;25.386;2023-05-15T06:19:25;10.80;;;9.80;;
8060;SDS011;4073;42.626;25.386;2023-05-15T06:21:51;10.67;;;9.23;;
8060;SDS011;4073;42.626;25.386;2023-05-15T06:24:16;11.20;;;9.80;;
8060;SDS011;4073;42.626;25.386;2023-05-15T06:26:42;11.53;;;10.43;;
8060;SDS011;4073;42.626;25.386;2023-05-15T06:29:07;14.60;;;10.10;;
8060;SDS011;4073;42.626;25.386;2023-05-15T06:31:33;14.97;;;10.33;;
8060;SDS011;4073;42.626;25.386;2023-05-15T06:33:58;10.67;;;9.73;;
8060;SDS011;4073;42.626;25.386;2023-05-15T06:36:24;11.63;;;10.53;;
8060;SDS011;4073;42.626;25.386;2023-05-15T06:38:49;13.77;;;10.93;;
8060;SDS011;4073;42.626;25.386;2023-05-15T06:41:15;12.10;;;10.83;;
8060;SDS011;4073;42.626;25.386;2023-05-15T06:43:41;11.93;;;10.73;;
8060;SDS011;4073;42.626;25.386;2023-05-15T06:46:07;10.53;;;9.57;;
8060;SDS011;4073;42.626;25.386;2023-05-15T06:48:32;11.97;;;10.83;;
8060;SDS011;4073;42.626;25.386;2023-05-15T06:50:58;12.10;;;10.27;;
8060;SDS011;4073;42.626;25.386;2023-05-15T06:53:23;12.33;;;10.63;;
8060;SDS011;4073;42.626;25.386;2023-05-15T06:55:49;12.43;;;11.03;;
8060;SDS011;4073;42.626;25.386;2023-05-15T06:58:14;12.43;;;11.23;;
8060;SDS011;4073;42.626;25.386;2023-05-15T07:00:42;11.83;;;10.67;;
8060;SDS011;4073;42.626;25.386;2023-05-15T07:03:07;12.10;;;10.93;;
8060;SDS011;4073;42.626;25.386;2023-05-15T07:05:33;11.20;;;10.20;;
8060;SDS011;4073;42.626;25.386;2023-05-15T07:07:58;14.17;;;11.43;;
8060;SDS011;4073;42.626;25.386;2023-05-15T07:10:24;11.73;;;10.53;;
8060;SDS011;4073;42.626;25.386;2023-05-15T07:12:50;12.10;;;11.00;;
8060;SDS011;4073;42.626;25.386;2023-05-15T07:15:15;12.13;;;9.93;;
8060;SDS011;4073;42.626;25.386;2023-05-15T07:17:41;10.53;;;9.47;;
8060;SDS011;4073;42.626;25.386;2023-05-15T07:20:07;11.50;;;10.40;;
8060;SDS011;4073;42.626;25.386;2023-05-15T07:22:33;11.83;;;10.63;;
8060;SDS011;4073;42.626;25.386;2023-05-15T07:24:58;11.73;;;10.63;;
8060;SDS011;4073;42.626;25.386;2023-05-15T07:27:24;12.20;;;10.57;;
8060;SDS011;4073;42.626;25.386;2023-05-15T07:29:50;12.93;;;10.83;;
8060;SDS011;4073;42.626;25.386;2023-05-15T07:32:17;10.50;;;9.60;;
8060;SDS011;4073;42.626;25.386;2023-05-15T07:34:42;11.67;;;10.57;;
8060;SDS011;4073;42.626;25.386;2023-05-15T07:37:08;11.13;;;10.20;;
8060;SDS011;4073;42.626;25.386;2023-05-15T07:39:33;11.57;;;10.57;;
8060;SDS011;4073;42.626;25.386;2023-05-15T07:41:59;11.20;;;9.70;;
8060;SDS011;4073;42.626;25.386;2023-05-15T07:44:24;10.83;;;9.77;;
8060;SDS011;4073;42.626;25.386;2023-05-15T07:46:50;10.77;;;9.57;;
8060;SDS011;4073;42.626;25.386;2023-05-15T07:49:15;12.80;;;10.00;;
8060;SDS011;4073;42.626;25.386;2023-05-15T07:51:41;11.37;;;10.27;;
8060;SDS011;4073;42.626;25.386;2023-05-15T07:54:06;10.97;;;9.97;;
8060;SDS011;4073;42.626;25.386;2023-05-15T07:56:32;12.20;;;10.67;;
8060;SDS011;4073;42.626;25.386;2023-05-15T07:58:57;12.57;;;11.17;;
8060;SDS011;4073;42.626;25.386;2023-05-15T08:01:23;12.80;;;11.13;;
8060;SDS011;4073;42.626;25.386;2023-05-15T08:03:48;12.27;;;10.80;;
8060;SDS011;4073;42.626;25.386;2023-05-15T08:06:13;13.33;;;11.33;;
8060;SDS011;4073;42.626;25.386;2023-05-15T08:08:40;12.10;;;10.90;;
8060;SDS011;4073;42.626;25.386;2023-05-15T08:11:05;12.67;;;11.37;;
8060;SDS011;4073;42.626;25.386;2023-05-15T08:13:31;15.87;;;10.80;;
8060;SDS011;4073;42.626;25.386;2023-05-15T08:15:56;14.00;;;11.77;;
8060;SDS011;4073;42.626;25.386;2023-05-15T08:18:21;12.93;;;11.60;;
8060;SDS011;4073;42.626;25.386;2023-05-15T08:20:47;13.03;;;11.63;;
8060;SDS011;4073;42.626;25.386;2023-05-15T08:23:13;12.77;;;10.67;;
8060;SDS011;4073;42.626;25.386;2023-05-15T08:25:38;15.37;;;11.23;;
8060;SDS011;4073;42.626;25.386;2023-05-15T08:28:04;12.77;;;10.87;;
8060;SDS011;4073;42.626;25.386;2023-05-15T08:30:31;15.10;;;11.53;;
8060;SDS011;4073;42.626;25.386;2023-05-15T08:32:56;11.80;;;10.70;;
8060;SDS011;4073;42.626;25.386;2023-05-15T08:35:22;11.73;;;10.63;;
8060;SDS011;4073;42.626;25.386;2023-05-15T08:37:47;11.50;;;10.37;;
8060;SDS011;4073;42.626;25.386;2023-05-15T08:40:13;11.73;;;10.60;;
8060;SDS011;4073;42.626;25.386;2023-05-15T08:42:42;10.93;;;9.83;;
8060;SDS011;4073;42.626;25.386;2023-05-15T08:45:10;12.07;;;10.10;;
8060;SDS011;4073;42.626;25.386;2023-05-15T08:47:38;11.97;;;10.20;;
8060;SDS011;4073;42.626;25.386;2023-05-15T08:52:39;12.67;;;11.37;;
8060;SDS011;4073;42.626;25.386;2023-05-15T08:55:14;11.67;;;10.57;;
8060;SDS011;4073;42.626;25.386;2023-05-15T08:57:40;15.60;;;10.47;;
8060;SDS011;4073;42.626;25.386;2023-05-15T09:00:06;14.20;;;10.67;;
8060;SDS011;4073;42.626;25.386;2023-05-15T09:02:39;12.20;;;10.00;;
8060;SDS011;4073;42.626;25.386;2023-05-15T09:05:06;11.17;;;10.03;;
8060;SDS011;4073;42.626;25.386;2023-05-15T09:07:33;12.00;;;10.70;;
8060;SDS011;4073;42.626;25.386;2023-05-15T09:09:58;13.20;;;10.37;;
8060;SDS011;4073;42.626;25.386;2023-05-15T09:12:26;12.00;;;9.90;;
8060;SDS011;4073;42.626;25.386;2023-05-15T09:17:37;11.50;;;9.40;;
8060;SDS011;4073;42.626;25.386;2023-05-15T09:20:04;10.70;;;9.60;;
8060;SDS011;4073;42.626;25.386;2023-05-15T09:22:32;9.53;;;8.63;;
8060;SDS011;4073;42.626;25.386;2023-05-15T09:24:58;10.10;;;8.57;;
8060;SDS011;4073;42.626;25.386;2023-05-15T09:27:24;10.13;;;9.13;;
8060;SDS011;4073;42.626;25.386;2023-05-15T09:29:50;13.10;;;9.33;;
8060;SDS011;4073;42.626;25.386;2023-05-15T09:32:18;11.40;;;10.00;;
8060;SDS011;4073;42.626;25.386;2023-05-15T09:34:44;10.37;;;9.47;;
8060;SDS011;4073;42.626;25.386;2023-05-15T09:37:11;10.27;;;9.27;;
8060;SDS011;4073;42.626;25.386;2023-05-15T09:39:51;11.20;;;10.13;;
8060;SDS011;4073;42.626;25.386;2023-05-15T09:42:17;10.33;;;9.27;;
8060;SDS011;4073;42.626;25.386;2023-05-15T09:44:43;11.33;;;9.67;;
8060;SDS011;4073;42.626;25.386;2023-05-15T09:47:10;13.00;;;9.77;;
8060;SDS011;4073;42.626;25.386;2023-05-15T09:49:36;11.60;;;10.37;;
8060;SDS011;4073;42.626;25.386;2023-05-15T09:52:02;11.37;;;10.20;;
8060;SDS011;4073;42.626;25.386;2023-05-15T09:54:33;12.30;;;11.00;;
8060;SDS011;4073;42.626;25.386;2023-05-15T09:57:10;11.97;;;10.77;;
8060;SDS011;4073;42.626;25.386;2023-05-15T09:59:46;11.27;;;10.03;;
8060;SDS011;4073;42.626;25.386;2023-05-15T10:02:34;11.93;;;10.37;;
8060;SDS011;4073;42.626;25.386;2023-05-15T10:04:59;12.73;;;11.27;;
8060;SDS011;4073;42.626;25.386;2023-05-15T10:07:29;12.23;;;10.80;;
8060;SDS011;4073;42.626;25.386;2023-05-15T10:09:55;11.37;;;10.27;;
8060;SDS011;4073;42.626;25.386;2023-05-15T10:12:22;15.77;;;12.07;;
8060;SDS011;4073;42.626;25.386;2023-05-15T10:14:48;11.87;;;10.10;;
8060;SDS011;4073;42.626;25.386;2023-05-15T10:17:15;12.47;;;10.43;;
8060;SDS011;4073;42.626;25.386;2023-05-15T10:19:43;12.47;;;10.83;;
8060;SDS011;4073;42.626;25.386;2023-05-15T10:22:08;12.90;;;11.60;;
8060;SDS011;4073;42.626;25.386;2023-05-15T10:24:35;12.33;;;11.13;;
8060;SDS011;4073;42.626;25.386;2023-05-15T10:27:05;11.00;;;9.77;;
8060;SDS011;4073;42.626;25.386;2023-05-15T10:29:33;11.10;;;9.90;;
8060;SDS011;4073;42.626;25.386;2023-05-15T10:32:00;10.43;;;9.43;;
8060;SDS011;4073;42.626;25.386;2023-05-15T10:34:26;13.13;;;10.50;;
8060;SDS011;4073;42.626;25.386;2023-05-15T10:36:52;24.87;;;16.27;;
8060;SDS011;4073;42.626;25.386;2023-05-15T10:39:18;12.37;;;11.07;;
8060;SDS011;4073;42.626;25.386;2023-05-15T10:41:44;12.77;;;11.13;;
8060;SDS011;4073;42.626;25.386;2023-05-15T10:44:11;14.13;;;10.67;;
8060;SDS011;4073;42.626;25.386;2023-05-15T10:46:39;16.57;;;12.60;;
8060;SDS011;4073;42.626;25.386;2023-05-15T10:49:05;16.10;;;11.03;;
8060;SDS011;4073;42.626;25.386;2023-05-15T10:51:31;14.57;;;11.43;;
8060;SDS011;4073;42.626;25.386;2023-05-15T10:53:58;13.37;;;11.97;;
8060;SDS011;4073;42.626;25.386;2023-05-15T10:56:25;13.07;;;11.57;;
8060;SDS011;4073;42.626;25.386;2023-05-15T10:58:54;12.03;;;10.83;;
8060;SDS011;4073;42.626;25.386;2023-05-15T11:01:26;13.00;;;11.67;;
8060;SDS011;4073;42.626;25.386;2023-05-15T11:06:34;13.10;;;11.87;;
8060;SDS011;4073;42.626;25.386;2023-05-15T11:14:17;11.20;;;10.10;;
8060;SDS011;4073;42.626;25.386;2023-05-15T11:24:47;10.97;;;9.53;;
8060;SDS011;4073;42.626;25.386;2023-05-15T11:27:23;12.07;;;9.60;;
8060;SDS011;4073;42.626;25.386;2023-05-15T11:35:11;9.97;;;7.80;;
8060;SDS011;4073;42.626;25.386;2023-05-15T11:37:46;7.90;;;7.20;;
8060;SDS011;4073;42.626;25.386;2023-05-15T11:40:27;8.20;;;7.43;;
8060;SDS011;4073;42.626;25.386;2023-05-15T11:42:58;9.20;;;6.97;;
8060;SDS011;4073;42.626;25.386;2023-05-15T11:45:29;9.30;;;7.63;;
8060;SDS011;4073;42.626;25.386;2023-05-15T11:47:58;8.83;;;7.03;;
8060;SDS011;4073;42.626;25.386;2023-05-15T11:50:25;8.20;;;7.40;;
8060;SDS011;4073;42.626;25.386;2023-05-15T11:52:51;9.57;;;7.30;;
8060;SDS011;4073;42.626;25.386;2023-05-15T11:55:17;9.87;;;7.03;;
8060;SDS011;4073;42.626;25.386;2023-05-15T11:57:47;8.13;;;6.70;;
8060;SDS011;4073;42.626;25.386;2023-05-15T12:00:13;10.67;;;6.70;;
8060;SDS011;4073;42.626;25.386;2023-05-15T12:02:39;6.97;;;5.90;;
8060;SDS011;4073;42.626;25.386;2023-05-15T12:05:07;6.60;;;5.70;;
8060;SDS011;4073;42.626;25.386;2023-05-15T12:07:40;6.73;;;5.60;;
8060;SDS011;4073;42.626;25.386;2023-05-15T12:10:08;5.63;;;5.10;;
8060;SDS011;4073;42.626;25.386;2023-05-15T12:12:35;6.07;;;5.13;;
8060;SDS011;4073;42.626;25.386;2023-05-15T12:15:10;7.10;;;5.33;;
8060;SDS011;4073;42.626;25.386;2023-05-15T12:17:40;7.33;;;4.80;;
8060;SDS011;4073;42.626;25.386;2023-05-15T12:20:07;5.53;;;4.97;;
8060;SDS011;4073;42.626;25.386;2023-05-15T12:22:36;8.57;;;5.23;;
8060;SDS011;4073;42.626;25.386;2023-05-15T12:25:04;6.27;;;5.63;;
8060;SDS011;4073;42.626;25.386;2023-05-15T12:27:31;6.17;;;4.70;;
8060;SDS011;4073;42.626;25.386;2023-05-15T12:29:56;5.73;;;5.23;;
8060;SDS011;4073;42.626;25.386;2023-05-15T12:32:22;8.37;;;6.10;;
8060;SDS011;4073;42.626;25.386;2023-05-15T12:34:48;6.63;;;5.73;;
8060;SDS011;4073;42.626;25.386;2023-05-15T12:37:14;8.80;;;5.53;;
8060;SDS011;4073;42.626;25.386;2023-05-15T12:39:52;7.80;;;5.43;;
8060;SDS011;4073;42.626;25.386;2023-05-15T12:42:19;6.93;;;6.03;;
8060;SDS011;4073;42.626;25.386;2023-05-15T12:44:44;7.60;;;6.07;;
8060;SDS011;4073;42.626;25.386;2023-05-15T12:47:12;6.63;;;6.07;;
8060;SDS011;4073;42.626;25.386;2023-05-15T12:49:40;9.13;;;6.23;;
8060;SDS011;4073;42.626;25.386;2023-05-15T12:52:07;6.87;;;6.00;;
8060;SDS011;4073;42.626;25.386;2023-05-15T12:54:37;6.50;;;5.90;;
8060;SDS011;4073;42.626;25.386;2023-05-15T12:57:04;7.07;;;6.03;;
8060;SDS011;4073;42.626;25.386;2023-05-15T12:59:29;7.30;;;6.27;;
8060;SDS011;4073;42.626;25.386;2023-05-15T13:01:55;6.30;;;5.60;;
8060;SDS011;4073;42.626;25.386;2023-05-15T13:04:20;7.00;;;6.30;;
8060;SDS011;4073;42.626;25.386;2023-05-15T13:06:46;6.87;;;6.27;;
8060;SDS011;4073;42.626;25.386;2023-05-15T13:09:11;12.13;;;5.47;;
8060;SDS011;4073;42.626;25.386;2023-05-15T13:11:41;6.97;;;6.07;;
8060;SDS011;4073;42.626;25.386;2023-05-15T13:14:08;7.43;;;6.60;;
8060;SDS011;4073;42.626;25.386;2023-05-15T13:16:41;10.73;;;6.30;;
8060;SDS011;4073;42.626;25.386;2023-05-15T13:19:07;6.70;;;6.10;;
8060;SDS011;4073;42.626;25.386;2023-05-15T13:21:33;8.93;;;6.40;;
8060;SDS011;4073;42.626;25.386;2023-05-15T13:23:59;8.43;;;5.90;;
8060;SDS011;4073;42.626;25.386;2023-05-15T13:26:25;6.93;;;6.17;;
8060;SDS011;4073;42.626;25.386;2023-05-15T13:28:50;7.30;;;6.57;;
8060;SDS011;4073;42.626;25.386;2023-05-15T13:31:16;6.53;;;5.80;;
8060;SDS011;4073;42.626;25.386;2023-05-15T13:33:41;8.10;;;6.10;;
8060;SDS011;4073;42.626;25.386;2023-05-15T13:36:07;9.60;;;6.20;;
8060;SDS011;4073;42.626;25.386;2023-05-15T13:38:33;5.93;;;5.43;;
8060;SDS011;4073;42.626;25.386;2023-05-15T13:40:58;6.63;;;5.50;;
8060;SDS011;4073;42.626;25.386;2023-05-15T13:43:24;6.57;;;5.63;;
8060;SDS011;4073;42.626;25.386;2023-05-15T13:45:49;8.17;;;6.00;;
8060;SDS011;4073;42.626;25.386;2023-05-15T13:48:15;8.70;;;6.43;;
8060;SDS011;4073;42.626;25.386;2023-05-15T13:50:41;6.63;;;5.97;;
8060;SDS011;4073;42.626;25.386;2023-05-15T13:53:07;6.23;;;5.63;;
8060;SDS011;4073;42.626;25.386;2023-05-15T13:55:33;6.83;;;6.13;;
8060;SDS011;4073;42.626;25.386;2023-05-15T13:57:59;7.13;;;6.40;;
8060;SDS011;4073;42.626;25.386;2023-05-15T14:00:25;6.90;;;6.20;;
8060;SDS011;4073;42.626;25.386;2023-05-15T14:02:50;6.10;;;5.07;;
8060;SDS011;4073;42.626;25.386;2023-05-15T14:05:16;5.97;;;5.37;;
8060;SDS011;4073;42.626;25.386;2023-05-15T14:07:41;8.83;;;5.83;;
8060;SDS011;4073;42.626;25.386;2023-05-15T14:10:08;7.23;;;5.57;;
8060;SDS011;4073;42.626;25.386;2023-05-15T14:12:35;8.53;;;6.20;;
8060;SDS011;4073;42.626;25.386;2023-05-15T14:15:01;10.83;;;6.20;;
8060;SDS011;4073;42.626;25.386;2023-05-15T14:17:26;7.67;;;6.27;;
8060;SDS011;4073;42.626;25.386;2023-05-15T14:19:52;8.70;;;6.77;;
8060;SDS011;4073;42.626;25.386;2023-05-15T14:22:18;10.20;;;5.93;;
8060;SDS011;4073;42.626;25.386;2023-05-15T14:24:43;9.37;;;6.00;;
8060;SDS011;4073;42.626;25.386;2023-05-15T14:27:09;7.87;;;6.27;;
8060;SDS011;4073;42.626;25.386;2023-05-15T14:29:34;7.30;;;6.17;;
8060;SDS011;4073;42.626;25.386;2023-05-15T14:32:00;7.10;;;5.60;;
8060;SDS011;4073;42.626;25.386;2023-05-15T14:34:26;6.87;;;5.97;;
8060;SDS011;4073;42.626;25.386;2023-05-15T14:36:53;10.47;;;6.17;;
8060;SDS011;4073;42.626;25.386;2023-05-15T14:39:18;7.50;;;5.90;;
8060;SDS011;4073;42.626;25.386;2023-05-15T14:41:44;7.73;;;6.10;;
8060;SDS011;4073;42.626;25.386;2023-05-15T14:44:11;6.07;;;5.50;;
8060;SDS011;4073;42.626;25.386;2023-05-15T14:46:37;5.57;;;4.77;;
8060;SDS011;4073;42.626;25.386;2023-05-15T14:49:03;6.67;;;5.77;;
8060;SDS011;4073;42.626;25.386;2023-05-15T14:51:29;6.60;;;5.00;;
8060;SDS011;4073;42.626;25.386;2023-05-15T14:53:55;6.37;;;5.37;;
8060;SDS011;4073;42.626;25.386;2023-05-15T14:56:21;10.17;;;6.07;;
8060;SDS011;4073;42.626;25.386;2023-05-15T14:58:46;7.60;;;6.00;;
8060;SDS011;4073;42.626;25.386;2023-05-15T15:01:13;6.50;;;5.90;;
8060;SDS011;4073;42.626;25.386;2023-05-15T15:03:39;8.33;;;5.27;;
8060;SDS011;4073;42.626;25.386;2023-05-15T15:06:06;6.90;;;5.53;;
8060;SDS011;4073;42.626;25.386;2023-05-15T15:08:32;8.37;;;5.87;;
8060;SDS011;4073;42.626;25.386;2023-05-15T15:10:57;6.30;;;5.70;;
8060;SDS011;4073;42.626;25.386;2023-05-15T15:13:23;7.20;;;6.40;;
8060;SDS011;4073;42.626;25.386;2023-05-15T15:15:50;9.93;;;5.97;;
8060;SDS011;4073;42.626;25.386;2023-05-15T15:18:16;9.57;;;5.83;;
8060;SDS011;4073;42.626;25.386;2023-05-15T15:20:41;8.23;;;5.90;;
8060;SDS011;4073;42.626;25.386;2023-05-15T15:23:07;6.07;;;5.47;;